Terminal Aerodrome Forecast
Issued by NWS

Current Version | Previous Version | Text Only | Print | Product List | Glossary On
Versions: 1 2 3 4 5 6 7 8 9 10 11 12 13 14 15 16 17 18 19 20 21 22 23 24 25 26 27 28
000
FTUS42 KCAE 231100
TAFCUB
TAF
KCUB 231131Z 2312/2412 04006KT P6SM VCSH SCT035 OVC110
      TEMPO 2312/2314 BKN035
     FM231700 04010G15KT P6SM SCT015 OVC035
     FM240000 04007KT P6SM OVC050=

USA.gov is the U.S. government's official web portal to all federal, state and local government web resources and services.